Parker, ID (83438)

6:11 AM MDT on September 29, 2016 (GMT -0600)
Salem | | Change Station

Elev 4879 ft 43.90 °N, 111.77 °W | Updated 38 seconds ago

Mostly Cloudy
Mostly Cloudy
48.0 °F
Feels Like 48 °F
N
0.0
Wind Variable Wind from East

Today
High -- | Low -- °F
--% Chance of Precip.
Yesterday
High -- | Low -- °F
Precip. -- in
Pressure 30.09 in
Visibility 10.0 miles
Clouds Mostly Cloudy 10000 ft
Windchill 48 °F
Dew Point 45 °F
Humidity 89%
Rainfall 0.00 in
Snow Depth Not available.
7:23 AM 7:10 PM
Waning Crescent, 2% visible
METAR KRXE 291153Z AUTO 08004KT 10SM BKN100 13/07 A3021 RMK AO2 SLP188 T01330067 10139 20100 55003
Pressure 30.09 in
Visibility 10.0 miles
Clouds Mostly Cloudy 10000 ft
Windchill 48 °F
Dew Point 45 °F
Humidity 89%
Rainfall 0.00 in
Snow Depth Not available.
7:23 AM 7:10 PM
Waning Crescent, 2% visible
METAR KRXE 291153Z AUTO 08004KT 10SM BKN100 13/07 A3021 RMK AO2 SLP188 T01330067 10139 20100 55003

10-Day Weather Forecast

Almanac

Astronomy

Sep. 29, 2016 Rise Set
Actual Time
Civil Twilight
Nautical Twilight
Astronomical Twilight
Moon
Length of Visible Light
Length of Day
Tomorrow will be .
, % of the Moon is Illuminated

Today's Extremes

State Highs State Lows

Community

WunderPhotos

Upload Photos

1,942,466 photos uploaded!

WunderBlog® & News

Nearby

Air Quality

  Air Quality AQ Index Pollutant
Not available.

Snow Depth

Station Depth Elevation

Earthquake Activity

City Distance Mag. Time & Date
Minimum magnitude displayed is 2.5.

Coastal Water Temperatures

Place Temperature

Stations

Nearby Weather Stations

Station Location Temp. Windchill Dew Point Humidity Wind Precip. Elev Updated Type
                   

Watches & Warnings

There are currently no watches in effect.